Lewes Beach, Delaware
Current Conditions -  °F | °C
As of 8:54 PM on Saturday 25 Oct 2014 (Local Time) from KGED Reporting Station
Clear Clear  
Wind Chill: 55°   Ceiling: Unl
Heat Index: 55°   Visibility: 10mi
Dew Point: 46°   Wind: 7mph
Humidity: 72%   Direction: 210°SSW
Pressure: 29.75"   Gusts: NA
Location:  38.7339°N, 75.1733°W
Report Text: KGED 260054Z AUTO 21006KT 10SM CLR 13/08 A2975 RMK AO2 SLP074 T01280078 $
Loading
Personal Weather Stations






























Interactive Weather Map New forecast layout! Learn more

10-Day Weather Forecast

Advertisements
Track Severe Weather on mobile